Terminal Aerodrome Forecast
Issued by NWS Quad Cities IA IL

Home | Current Version | Previous Version | Text Only | Print | Product List | Glossary On
Versions: 1 2 3 4 5 6 7 8 9 10 11 12 13 14 15 16 17 18 19 20 21 22
727
FTUS43 KDVN 151745
TAFDBQ
TAF
KDBQ 151745Z 1518/1618 04008KT P6SM OVC007
     FM152100 06007KT P6SM BKN025
     FM160200 08005KT P6SM SCT030
     FM160900 11007KT 5SM BR VCSH BKN025
     FM161300 11009KT 4SM BR BKN007=

USA.gov is the U.S. government's official web portal to all federal, state and local government web resources and services.